sensor_id;sensor_type;location;lat;lon;timestamp;P1;durP1;ratioP1;P2;durP2;ratioP2
5519;SDS011;2782;52.362;10.012;2022-12-10T00:00:25;5.95;;;4.40;;
5519;SDS011;2782;52.362;10.012;2022-12-10T00:01:26;5.53;;;4.10;;
5519;SDS011;2782;52.362;10.012;2022-12-10T00:02:29;6.45;;;4.07;;
5519;SDS011;2782;52.362;10.012;2022-12-10T00:03:30;5.50;;;4.07;;
5519;SDS011;2782;52.362;10.012;2022-12-10T00:04:33;6.75;;;4.65;;
5519;SDS011;2782;52.362;10.012;2022-12-10T00:05:34;6.32;;;4.10;;
5519;SDS011;2782;52.362;10.012;2022-12-10T00:06:37;5.72;;;4.32;;
5519;SDS011;2782;52.362;10.012;2022-12-10T00:07:39;5.88;;;4.10;;
5519;SDS011;2782;52.362;10.012;2022-12-10T00:08:41;5.88;;;4.55;;
5519;SDS011;2782;52.362;10.012;2022-12-10T00:09:41;5.93;;;4.20;;
5519;SDS011;2782;52.362;10.012;2022-12-10T00:10:43;5.55;;;4.18;;
5519;SDS011;2782;52.362;10.012;2022-12-10T00:11:44;7.93;;;4.17;;
5519;SDS011;2782;52.362;10.012;2022-12-10T00:12:45;6.70;;;4.10;;
5519;SDS011;2782;52.362;10.012;2022-12-10T00:13:46;5.70;;;4.37;;
5519;SDS011;2782;52.362;10.012;2022-12-10T00:14:49;5.05;;;4.28;;
5519;SDS011;2782;52.362;10.012;2022-12-10T00:15:50;6.80;;;4.50;;
5519;SDS011;2782;52.362;10.012;2022-12-10T00:16:51;4.40;;;3.90;;
5519;SDS011;2782;52.362;10.012;2022-12-10T00:17:53;6.00;;;4.47;;
5519;SDS011;2782;52.362;10.012;2022-12-10T00:18:54;4.63;;;3.73;;
5519;SDS011;2782;52.362;10.012;2022-12-10T00:19:57;5.10;;;4.20;;
5519;SDS011;2782;52.362;10.012;2022-12-10T00:20:58;6.70;;;4.70;;
5519;SDS011;2782;52.362;10.012;2022-12-10T00:22:02;5.47;;;4.35;;
5519;SDS011;2782;52.362;10.012;2022-12-10T00:23:04;6.05;;;4.40;;
5519;SDS011;2782;52.362;10.012;2022-12-10T00:24:05;7.90;;;4.80;;
5519;SDS011;2782;52.362;10.012;2022-12-10T00:25:07;5.28;;;4.38;;
5519;SDS011;2782;52.362;10.012;2022-12-10T00:26:08;6.30;;;4.68;;
5519;SDS011;2782;52.362;10.012;2022-12-10T00:27:11;5.85;;;4.47;;
5519;SDS011;2782;52.362;10.012;2022-12-10T00:28:12;5.70;;;4.10;;
5519;SDS011;2782;52.362;10.012;2022-12-10T00:29:14;6.05;;;3.90;;
5519;SDS011;2782;52.362;10.012;2022-12-10T00:30:15;5.18;;;3.97;;
5519;SDS011;2782;52.362;10.012;2022-12-10T00:31:17;6.23;;;4.47;;
5519;SDS011;2782;52.362;10.012;2022-12-10T00:32:19;5.28;;;3.97;;
5519;SDS011;2782;52.362;10.012;2022-12-10T00:33:20;4.47;;;3.77;;
5519;SDS011;2782;52.362;10.012;2022-12-10T00:34:22;4.78;;;3.90;;
5519;SDS011;2782;52.362;10.012;2022-12-10T00:35:24;5.63;;;4.50;;
5519;SDS011;2782;52.362;10.012;2022-12-10T00:36:27;6.53;;;4.60;;
5519;SDS011;2782;52.362;10.012;2022-12-10T00:37:29;5.05;;;4.00;;
5519;SDS011;2782;52.362;10.012;2022-12-10T00:38:30;4.75;;;3.45;;
5519;SDS011;2782;52.362;10.012;2022-12-10T00:39:31;5.10;;;4.47;;
5519;SDS011;2782;52.362;10.012;2022-12-10T00:40:33;5.97;;;4.18;;
5519;SDS011;2782;52.362;10.012;2022-12-10T00:41:33;5.50;;;3.83;;
5519;SDS011;2782;52.362;10.012;2022-12-10T00:42:35;5.72;;;4.32;;
5519;SDS011;2782;52.362;10.012;2022-12-10T00:43:36;6.00;;;4.60;;
5519;SDS011;2782;52.362;10.012;2022-12-10T00:44:38;4.35;;;3.60;;
5519;SDS011;2782;52.362;10.012;2022-12-10T00:45:39;5.00;;;3.92;;
5519;SDS011;2782;52.362;10.012;2022-12-10T00:46:40;7.22;;;4.93;;
5519;SDS011;2782;52.362;10.012;2022-12-10T00:47:42;4.35;;;3.70;;
5519;SDS011;2782;52.362;10.012;2022-12-10T00:48:43;4.80;;;3.87;;
5519;SDS011;2782;52.362;10.012;2022-12-10T00:49:44;4.53;;;4.03;;
5519;SDS011;2782;52.362;10.012;2022-12-10T00:50:55;6.20;;;4.57;;
5519;SDS011;2782;52.362;10.012;2022-12-10T00:51:57;5.43;;;4.00;;
5519;SDS011;2782;52.362;10.012;2022-12-10T00:53:00;5.75;;;4.45;;
5519;SDS011;2782;52.362;10.012;2022-12-10T00:54:01;4.80;;;3.73;;
5519;SDS011;2782;52.362;10.012;2022-12-10T00:55:03;3.70;;;3.30;;
5519;SDS011;2782;52.362;10.012;2022-12-10T00:56:04;5.93;;;4.50;;
5519;SDS011;2782;52.362;10.012;2022-12-10T00:57:06;5.55;;;4.32;;
5519;SDS011;2782;52.362;10.012;2022-12-10T00:58:08;5.70;;;3.95;;
5519;SDS011;2782;52.362;10.012;2022-12-10T00:59:08;5.37;;;4.27;;
5519;SDS011;2782;52.362;10.012;2022-12-10T01:00:10;5.10;;;4.32;;
5519;SDS011;2782;52.362;10.012;2022-12-10T01:01:16;8.63;;;3.90;;
5519;SDS011;2782;52.362;10.012;2022-12-10T01:02:20;4.95;;;3.92;;
5519;SDS011;2782;52.362;10.012;2022-12-10T01:03:21;4.93;;;3.50;;
5519;SDS011;2782;52.362;10.012;2022-12-10T01:04:23;5.82;;;3.97;;
5519;SDS011;2782;52.362;10.012;2022-12-10T01:05:24;6.60;;;4.10;;
5519;SDS011;2782;52.362;10.012;2022-12-10T01:06:27;6.05;;;4.10;;
5519;SDS011;2782;52.362;10.012;2022-12-10T01:07:31;6.07;;;4.30;;
5519;SDS011;2782;52.362;10.012;2022-12-10T01:08:31;5.70;;;3.97;;
5519;SDS011;2782;52.362;10.012;2022-12-10T01:09:33;4.97;;;3.95;;
5519;SDS011;2782;52.362;10.012;2022-12-10T01:10:35;5.55;;;4.15;;
5519;SDS011;2782;52.362;10.012;2022-12-10T01:11:36;5.80;;;4.20;;
5519;SDS011;2782;52.362;10.012;2022-12-10T01:12:39;4.93;;;3.85;;
5519;SDS011;2782;52.362;10.012;2022-12-10T01:13:40;5.80;;;4.23;;
5519;SDS011;2782;52.362;10.012;2022-12-10T01:14:43;5.60;;;3.88;;
5519;SDS011;2782;52.362;10.012;2022-12-10T01:15:44;3.90;;;3.47;;
5519;SDS011;2782;52.362;10.012;2022-12-10T01:16:45;5.53;;;4.07;;
5519;SDS011;2782;52.362;10.012;2022-12-10T01:17:46;5.50;;;3.60;;
5519;SDS011;2782;52.362;10.012;2022-12-10T01:18:48;3.90;;;3.45;;
5519;SDS011;2782;52.362;10.012;2022-12-10T01:19:49;5.18;;;4.03;;
5519;SDS011;2782;52.362;10.012;2022-12-10T01:20:51;4.53;;;3.70;;
5519;SDS011;2782;52.362;10.012;2022-12-10T01:21:53;5.10;;;4.13;;
5519;SDS011;2782;52.362;10.012;2022-12-10T01:22:55;5.07;;;4.00;;
5519;SDS011;2782;52.362;10.012;2022-12-10T01:23:57;5.67;;;3.93;;
5519;SDS011;2782;52.362;10.012;2022-12-10T01:24:59;4.00;;;3.25;;
5519;SDS011;2782;52.362;10.012;2022-12-10T01:26:01;4.80;;;3.70;;
5519;SDS011;2782;52.362;10.012;2022-12-10T01:27:03;5.32;;;3.95;;
5519;SDS011;2782;52.362;10.012;2022-12-10T01:28:04;5.80;;;4.30;;
5519;SDS011;2782;52.362;10.012;2022-12-10T01:29:05;4.10;;;3.17;;
5519;SDS011;2782;52.362;10.012;2022-12-10T01:30:07;4.28;;;3.60;;
5519;SDS011;2782;52.362;10.012;2022-12-10T01:31:10;4.85;;;3.85;;
5519;SDS011;2782;52.362;10.012;2022-12-10T01:32:13;5.40;;;4.18;;
5519;SDS011;2782;52.362;10.012;2022-12-10T01:33:14;5.37;;;3.60;;
5519;SDS011;2782;52.362;10.012;2022-12-10T01:34:15;4.75;;;3.90;;
5519;SDS011;2782;52.362;10.012;2022-12-10T01:35:16;4.70;;;3.80;;
5519;SDS011;2782;52.362;10.012;2022-12-10T01:36:19;4.10;;;3.55;;
5519;SDS011;2782;52.362;10.012;2022-12-10T01:37:23;3.90;;;3.22;;
5519;SDS011;2782;52.362;10.012;2022-12-10T01:38:25;5.55;;;4.10;;
5519;SDS011;2782;52.362;10.012;2022-12-10T01:39:26;4.00;;;3.30;;
5519;SDS011;2782;52.362;10.012;2022-12-10T01:40:27;4.68;;;3.15;;
5519;SDS011;2782;52.362;10.012;2022-12-10T01:41:29;3.97;;;3.57;;
5519;SDS011;2782;52.362;10.012;2022-12-10T01:42:33;5.47;;;3.88;;
5519;SDS011;2782;52.362;10.012;2022-12-10T01:43:48;4.67;;;3.90;;
5519;SDS011;2782;52.362;10.012;2022-12-10T01:44:59;4.20;;;3.72;;
5519;SDS011;2782;52.362;10.012;2022-12-10T01:46:04;3.47;;;3.17;;
5519;SDS011;2782;52.362;10.012;2022-12-10T01:47:05;4.15;;;3.55;;
5519;SDS011;2782;52.362;10.012;2022-12-10T01:48:07;4.60;;;3.70;;
5519;SDS011;2782;52.362;10.012;2022-12-10T01:49:09;3.88;;;3.28;;
5519;SDS011;2782;52.362;10.012;2022-12-10T01:50:12;4.50;;;3.25;;
5519;SDS011;2782;52.362;10.012;2022-12-10T01:51:14;4.00;;;3.35;;
5519;SDS011;2782;52.362;10.012;2022-12-10T01:52:15;6.75;;;4.40;;
5519;SDS011;2782;52.362;10.012;2022-12-10T01:53:18;4.13;;;3.67;;
5519;SDS011;2782;52.362;10.012;2022-12-10T01:54:21;4.95;;;3.97;;
5519;SDS011;2782;52.362;10.012;2022-12-10T01:55:38;5.32;;;3.63;;
5519;SDS011;2782;52.362;10.012;2022-12-10T01:56:44;5.50;;;3.58;;
5519;SDS011;2782;52.362;10.012;2022-12-10T01:57:46;3.30;;;3.00;;
5519;SDS011;2782;52.362;10.012;2022-12-10T01:58:48;5.35;;;3.90;;
5519;SDS011;2782;52.362;10.012;2022-12-10T01:59:51;3.80;;;3.13;;
5519;SDS011;2782;52.362;10.012;2022-12-10T02:01:05;5.45;;;4.00;;
5519;SDS011;2782;52.362;10.012;2022-12-10T02:02:11;5.25;;;3.70;;
5519;SDS011;2782;52.362;10.012;2022-12-10T02:03:19;3.58;;;3.13;;
5519;SDS011;2782;52.362;10.012;2022-12-10T02:04:24;4.68;;;3.97;;
5519;SDS011;2782;52.362;10.012;2022-12-10T02:05:34;5.75;;;3.83;;
5519;SDS011;2782;52.362;10.012;2022-12-10T02:06:43;4.10;;;3.17;;
5519;SDS011;2782;52.362;10.012;2022-12-10T02:07:54;6.65;;;3.92;;
5519;SDS011;2782;52.362;10.012;2022-12-10T02:09:07;3.88;;;3.40;;
5519;SDS011;2782;52.362;10.012;2022-12-10T02:10:15;3.45;;;3.15;;
5519;SDS011;2782;52.362;10.012;2022-12-10T02:11:22;5.30;;;3.60;;
5519;SDS011;2782;52.362;10.012;2022-12-10T02:12:34;4.28;;;3.63;;
5519;SDS011;2782;52.362;10.012;2022-12-10T02:13:38;4.30;;;3.15;;
5519;SDS011;2782;52.362;10.012;2022-12-10T02:14:44;5.60;;;3.78;;
5519;SDS011;2782;52.362;10.012;2022-12-10T02:15:55;3.65;;;3.17;;
5519;SDS011;2782;52.362;10.012;2022-12-10T02:17:02;3.80;;;3.40;;
5519;SDS011;2782;52.362;10.012;2022-12-10T02:18:08;4.15;;;3.50;;
5519;SDS011;2782;52.362;10.012;2022-12-10T02:19:13;3.70;;;3.35;;
5519;SDS011;2782;52.362;10.012;2022-12-10T02:20:21;5.10;;;3.83;;
5519;SDS011;2782;52.362;10.012;2022-12-10T02:21:26;5.20;;;3.70;;
5519;SDS011;2782;52.362;10.012;2022-12-10T02:22:31;3.80;;;3.30;;
5519;SDS011;2782;52.362;10.012;2022-12-10T02:23:35;3.75;;;3.25;;
5519;SDS011;2782;52.362;10.012;2022-12-10T02:24:41;5.40;;;3.50;;
5519;SDS011;2782;52.362;10.012;2022-12-10T02:25:44;4.55;;;3.88;;
5519;SDS011;2782;52.362;10.012;2022-12-10T02:26:49;4.03;;;3.40;;
5519;SDS011;2782;52.362;10.012;2022-12-10T02:27:57;4.65;;;3.40;;
5519;SDS011;2782;52.362;10.012;2022-12-10T02:29:07;7.65;;;3.78;;
5519;SDS011;2782;52.362;10.012;2022-12-10T02:30:12;4.55;;;3.28;;
5519;SDS011;2782;52.362;10.012;2022-12-10T02:31:15;4.90;;;3.40;;
5519;SDS011;2782;52.362;10.012;2022-12-10T02:32:19;4.53;;;3.60;;
5519;SDS011;2782;52.362;10.012;2022-12-10T02:33:24;4.20;;;3.10;;
5519;SDS011;2782;52.362;10.012;2022-12-10T02:34:28;10.80;;;3.70;;
5519;SDS011;2782;52.362;10.012;2022-12-10T02:35:33;3.80;;;2.90;;
5519;SDS011;2782;52.362;10.012;2022-12-10T02:36:39;7.95;;;3.80;;
5519;SDS011;2782;52.362;10.012;2022-12-10T02:37:44;3.80;;;3.03;;
5519;SDS011;2782;52.362;10.012;2022-12-10T02:38:48;5.70;;;3.53;;
5519;SDS011;2782;52.362;10.012;2022-12-10T02:39:52;5.88;;;4.00;;
5519;SDS011;2782;52.362;10.012;2022-12-10T02:40:57;5.00;;;3.22;;
5519;SDS011;2782;52.362;10.012;2022-12-10T02:42:00;3.78;;;3.20;;
5519;SDS011;2782;52.362;10.012;2022-12-10T02:43:04;4.15;;;3.10;;
5519;SDS011;2782;52.362;10.012;2022-12-10T02:44:09;5.63;;;3.60;;
5519;SDS011;2782;52.362;10.012;2022-12-10T02:45:12;3.65;;;3.20;;
5519;SDS011;2782;52.362;10.012;2022-12-10T02:46:15;3.50;;;3.00;;
5519;SDS011;2782;52.362;10.012;2022-12-10T02:47:16;4.55;;;3.38;;
5519;SDS011;2782;52.362;10.012;2022-12-10T02:48:19;5.80;;;3.50;;
5519;SDS011;2782;52.362;10.012;2022-12-10T02:49:20;5.00;;;3.40;;
5519;SDS011;2782;52.362;10.012;2022-12-10T02:50:24;4.20;;;3.35;;
5519;SDS011;2782;52.362;10.012;2022-12-10T02:51:25;4.23;;;3.50;;
5519;SDS011;2782;52.362;10.012;2022-12-10T02:52:27;5.13;;;3.35;;
5519;SDS011;2782;52.362;10.012;2022-12-10T02:53:28;4.00;;;3.10;;
5519;SDS011;2782;52.362;10.012;2022-12-10T02:54:34;3.88;;;3.38;;
5519;SDS011;2782;52.362;10.012;2022-12-10T02:55:44;3.70;;;3.10;;
5519;SDS011;2782;52.362;10.012;2022-12-10T02:56:57;4.25;;;3.40;;
5519;SDS011;2782;52.362;10.012;2022-12-10T02:58:03;3.83;;;2.97;;
5519;SDS011;2782;52.362;10.012;2022-12-10T02:59:14;4.90;;;2.97;;
5519;SDS011;2782;52.362;10.012;2022-12-10T03:00:20;4.55;;;3.35;;
5519;SDS011;2782;52.362;10.012;2022-12-10T03:01:25;4.05;;;3.40;;
5519;SDS011;2782;52.362;10.012;2022-12-10T03:02:34;4.75;;;3.30;;
5519;SDS011;2782;52.362;10.012;2022-12-10T03:03:42;3.40;;;3.05;;
5519;SDS011;2782;52.362;10.012;2022-12-10T03:04:51;3.70;;;3.17;;
5519;SDS011;2782;52.362;10.012;2022-12-10T03:05:58;5.32;;;3.88;;
5519;SDS011;2782;52.362;10.012;2022-12-10T03:07:05;3.72;;;3.15;;
5519;SDS011;2782;52.362;10.012;2022-12-10T03:08:12;4.47;;;3.40;;
5519;SDS011;2782;52.362;10.012;2022-12-10T03:09:16;4.10;;;3.10;;
5519;SDS011;2782;52.362;10.012;2022-12-10T03:10:23;3.80;;;2.75;;
5519;SDS011;2782;52.362;10.012;2022-12-10T03:11:28;3.60;;;3.10;;
5519;SDS011;2782;52.362;10.012;2022-12-10T03:12:31;3.25;;;2.95;;
5519;SDS011;2782;52.362;10.012;2022-12-10T03:13:36;4.07;;;3.30;;
5519;SDS011;2782;52.362;10.012;2022-12-10T03:14:45;3.97;;;3.25;;
5519;SDS011;2782;52.362;10.012;2022-12-10T03:15:47;3.60;;;3.20;;
5519;SDS011;2782;52.362;10.012;2022-12-10T03:16:52;3.97;;;3.15;;
5519;SDS011;2782;52.362;10.012;2022-12-10T03:17:55;9.38;;;3.22;;
5519;SDS011;2782;52.362;10.012;2022-12-10T03:19:01;3.10;;;2.80;;
5519;SDS011;2782;52.362;10.012;2022-12-10T03:20:06;6.95;;;3.05;;
5519;SDS011;2782;52.362;10.012;2022-12-10T03:21:09;5.90;;;3.50;;
5519;SDS011;2782;52.362;10.012;2022-12-10T03:22:11;3.05;;;2.75;;
5519;SDS011;2782;52.362;10.012;2022-12-10T03:23:15;3.90;;;3.13;;
5519;SDS011;2782;52.362;10.012;2022-12-10T03:24:18;4.43;;;3.90;;
5519;SDS011;2782;52.362;10.012;2022-12-10T03:25:23;4.90;;;3.60;;
5519;SDS011;2782;52.362;10.012;2022-12-10T03:26:26;3.88;;;3.10;;
5519;SDS011;2782;52.362;10.012;2022-12-10T03:27:29;3.35;;;3.05;;
5519;SDS011;2782;52.362;10.012;2022-12-10T03:28:30;3.03;;;2.72;;
5519;SDS011;2782;52.362;10.012;2022-12-10T03:29:36;6.45;;;3.63;;
5519;SDS011;2782;52.362;10.012;2022-12-10T03:30:42;4.07;;;3.35;;
5519;SDS011;2782;52.362;10.012;2022-12-10T03:31:44;3.92;;;2.92;;
5519;SDS011;2782;52.362;10.012;2022-12-10T03:32:46;3.55;;;3.03;;
5519;SDS011;2782;52.362;10.012;2022-12-10T03:33:49;3.97;;;3.05;;
5519;SDS011;2782;52.362;10.012;2022-12-10T03:34:53;4.72;;;3.53;;
5519;SDS011;2782;52.362;10.012;2022-12-10T03:35:57;4.35;;;3.45;;
5519;SDS011;2782;52.362;10.012;2022-12-10T03:36:59;3.03;;;2.72;;
5519;SDS011;2782;52.362;10.012;2022-12-10T03:38:01;4.47;;;3.45;;
5519;SDS011;2782;52.362;10.012;2022-12-10T03:39:02;6.20;;;2.85;;
5519;SDS011;2782;52.362;10.012;2022-12-10T03:40:05;5.47;;;2.95;;
5519;SDS011;2782;52.362;10.012;2022-12-10T03:41:08;8.80;;;4.47;;
5519;SDS011;2782;52.362;10.012;2022-12-10T03:42:10;4.55;;;4.03;;
5519;SDS011;2782;52.362;10.012;2022-12-10T03:43:11;6.80;;;4.20;;
5519;SDS011;2782;52.362;10.012;2022-12-10T03:44:19;4.93;;;3.40;;
5519;SDS011;2782;52.362;10.012;2022-12-10T03:45:27;5.43;;;4.07;;
5519;SDS011;2782;52.362;10.012;2022-12-10T03:46:31;5.50;;;4.07;;
5519;SDS011;2782;52.362;10.012;2022-12-10T03:47:33;4.60;;;4.00;;
5519;SDS011;2782;52.362;10.012;2022-12-10T03:48:35;4.45;;;3.60;;
5519;SDS011;2782;52.362;10.012;2022-12-10T03:49:36;7.23;;;4.50;;
5519;SDS011;2782;52.362;10.012;2022-12-10T03:50:37;4.07;;;3.63;;
5519;SDS011;2782;52.362;10.012;2022-12-10T03:51:38;6.50;;;4.30;;
5519;SDS011;2782;52.362;10.012;2022-12-10T03:52:40;6.00;;;3.95;;
5519;SDS011;2782;52.362;10.012;2022-12-10T03:53:41;6.83;;;3.73;;
5519;SDS011;2782;52.362;10.012;2022-12-10T03:54:42;6.70;;;4.10;;
5519;SDS011;2782;52.362;10.012;2022-12-10T03:55:43;5.43;;;3.70;;
5519;SDS011;2782;52.362;10.012;2022-12-10T03:56:45;4.75;;;3.60;;
5519;SDS011;2782;52.362;10.012;2022-12-10T03:57:46;10.40;;;3.30;;
5519;SDS011;2782;52.362;10.012;2022-12-10T03:58:48;5.57;;;4.10;;
5519;SDS011;2782;52.362;10.012;2022-12-10T03:59:48;6.10;;;4.07;;
5519;SDS011;2782;52.362;10.012;2022-12-10T04:00:50;5.43;;;3.70;;
5519;SDS011;2782;52.362;10.012;2022-12-10T04:01:52;4.40;;;3.40;;
5519;SDS011;2782;52.362;10.012;2022-12-10T04:02:54;4.28;;;3.15;;
5519;SDS011;2782;52.362;10.012;2022-12-10T04:03:55;4.50;;;3.60;;
5519;SDS011;2782;52.362;10.012;2022-12-10T04:04:56;4.82;;;3.60;;
5519;SDS011;2782;52.362;10.012;2022-12-10T04:06:00;5.37;;;3.27;;
5519;SDS011;2782;52.362;10.012;2022-12-10T04:07:02;7.10;;;3.70;;
5519;SDS011;2782;52.362;10.012;2022-12-10T04:08:03;3.87;;;3.00;;
5519;SDS011;2782;52.362;10.012;2022-12-10T04:09:05;5.55;;;3.78;;
5519;SDS011;2782;52.362;10.012;2022-12-10T04:10:07;4.45;;;3.38;;
5519;SDS011;2782;52.362;10.012;2022-12-10T04:11:10;4.70;;;3.63;;
5519;SDS011;2782;52.362;10.012;2022-12-10T04:12:12;3.25;;;2.80;;
5519;SDS011;2782;52.362;10.012;2022-12-10T04:13:14;3.70;;;3.35;;
5519;SDS011;2782;52.362;10.012;2022-12-10T04:14:42;5.10;;;3.83;;
5519;SDS011;2782;52.362;10.012;2022-12-10T04:16:01;5.50;;;3.45;;
5519;SDS011;2782;52.362;10.012;2022-12-10T04:17:21;9.88;;;3.53;;
5519;SDS011;2782;52.362;10.012;2022-12-10T04:18:23;4.28;;;3.70;;
5519;SDS011;2782;52.362;10.012;2022-12-10T04:19:24;4.33;;;3.37;;
5519;SDS011;2782;52.362;10.012;2022-12-10T04:20:26;3.53;;;2.95;;
5519;SDS011;2782;52.362;10.012;2022-12-10T04:21:46;5.45;;;3.05;;
5519;SDS011;2782;52.362;10.012;2022-12-10T04:23:06;4.07;;;2.90;;
5519;SDS011;2782;52.362;10.012;2022-12-10T04:24:26;5.78;;;3.75;;
5519;SDS011;2782;52.362;10.012;2022-12-10T04:25:47;3.85;;;3.00;;
5519;SDS011;2782;52.362;10.012;2022-12-10T04:27:08;5.22;;;3.15;;
5519;SDS011;2782;52.362;10.012;2022-12-10T04:28:11;3.90;;;3.00;;
5519;SDS011;2782;52.362;10.012;2022-12-10T04:29:12;4.90;;;3.70;;
5519;SDS011;2782;52.362;10.012;2022-12-10T04:30:14;3.80;;;2.80;;
5519;SDS011;2782;52.362;10.012;2022-12-10T04:31:14;5.17;;;2.83;;
5519;SDS011;2782;52.362;10.012;2022-12-10T04:32:16;4.85;;;3.35;;
5519;SDS011;2782;52.362;10.012;2022-12-10T04:33:19;4.72;;;3.40;;
5519;SDS011;2782;52.362;10.012;2022-12-10T04:34:20;5.35;;;3.83;;
5519;SDS011;2782;52.362;10.012;2022-12-10T04:35:21;4.93;;;3.00;;
5519;SDS011;2782;52.362;10.012;2022-12-10T04:36:23;8.38;;;3.47;;
5519;SDS011;2782;52.362;10.012;2022-12-10T04:37:24;3.03;;;2.73;;
5519;SDS011;2782;52.362;10.012;2022-12-10T04:38:26;4.03;;;2.92;;
5519;SDS011;2782;52.362;10.012;2022-12-10T04:39:27;4.07;;;3.00;;
5519;SDS011;2782;52.362;10.012;2022-12-10T04:40:29;3.22;;;2.78;;
5519;SDS011;2782;52.362;10.012;2022-12-10T04:41:29;3.30;;;2.63;;
5519;SDS011;2782;52.362;10.012;2022-12-10T04:42:31;3.45;;;3.00;;
5519;SDS011;2782;52.362;10.012;2022-12-10T04:43:32;3.10;;;2.70;;
5519;SDS011;2782;52.362;10.012;2022-12-10T04:44:34;3.00;;;2.70;;
5519;SDS011;2782;52.362;10.012;2022-12-10T04:45:36;4.43;;;3.13;;
5519;SDS011;2782;52.362;10.012;2022-12-10T04:46:38;5.45;;;2.95;;
5519;SDS011;2782;52.362;10.012;2022-12-10T04:47:39;2.63;;;2.43;;
5519;SDS011;2782;52.362;10.012;2022-12-10T04:48:42;2.90;;;2.60;;
5519;SDS011;2782;52.362;10.012;2022-12-10T04:49:43;3.80;;;3.03;;
5519;SDS011;2782;52.362;10.012;2022-12-10T04:50:45;3.10;;;2.30;;
5519;SDS011;2782;52.362;10.012;2022-12-10T04:51:46;4.97;;;3.22;;
5519;SDS011;2782;52.362;10.012;2022-12-10T04:52:48;4.05;;;2.80;;
5519;SDS011;2782;52.362;10.012;2022-12-10T04:53:49;2.67;;;2.47;;
5519;SDS011;2782;52.362;10.012;2022-12-10T04:54:50;5.22;;;3.10;;
5519;SDS011;2782;52.362;10.012;2022-12-10T04:55:51;3.47;;;2.70;;
5519;SDS011;2782;52.362;10.012;2022-12-10T04:56:53;2.72;;;2.50;;
5519;SDS011;2782;52.362;10.012;2022-12-10T04:57:54;3.47;;;3.17;;
5519;SDS011;2782;52.362;10.012;2022-12-10T04:58:57;3.10;;;2.50;;
5519;SDS011;2782;52.362;10.012;2022-12-10T04:59:58;2.85;;;2.63;;
5519;SDS011;2782;52.362;10.012;2022-12-10T05:01:00;2.88;;;2.58;;
5519;SDS011;2782;52.362;10.012;2022-12-10T05:02:02;2.97;;;2.67;;
5519;SDS011;2782;52.362;10.012;2022-12-10T05:03:04;3.40;;;2.78;;
5519;SDS011;2782;52.362;10.012;2022-12-10T05:04:07;3.23;;;2.90;;
5519;SDS011;2782;52.362;10.012;2022-12-10T05:05:11;4.75;;;3.35;;
5519;SDS011;2782;52.362;10.012;2022-12-10T05:06:13;3.47;;;3.00;;
5519;SDS011;2782;52.362;10.012;2022-12-10T05:07:15;3.55;;;2.92;;
5519;SDS011;2782;52.362;10.012;2022-12-10T05:08:17;3.72;;;3.20;;
5519;SDS011;2782;52.362;10.012;2022-12-10T05:09:18;3.60;;;3.00;;
5519;SDS011;2782;52.362;10.012;2022-12-10T05:10:20;3.22;;;2.70;;
5519;SDS011;2782;52.362;10.012;2022-12-10T05:11:22;3.43;;;2.77;;
5519;SDS011;2782;52.362;10.012;2022-12-10T05:12:25;4.00;;;2.97;;
5519;SDS011;2782;52.362;10.012;2022-12-10T05:13:27;4.53;;;3.00;;
5519;SDS011;2782;52.362;10.012;2022-12-10T05:14:29;3.50;;;2.63;;
5519;SDS011;2782;52.362;10.012;2022-12-10T05:15:30;2.83;;;2.30;;
5519;SDS011;2782;52.362;10.012;2022-12-10T05:16:33;2.85;;;2.55;;
5519;SDS011;2782;52.362;10.012;2022-12-10T05:17:34;2.83;;;2.60;;
5519;SDS011;2782;52.362;10.012;2022-12-10T05:18:36;7.75;;;2.70;;
5519;SDS011;2782;52.362;10.012;2022-12-10T05:19:38;3.40;;;2.90;;
5519;SDS011;2782;52.362;10.012;2022-12-10T05:20:40;2.50;;;2.30;;
5519;SDS011;2782;52.362;10.012;2022-12-10T05:21:40;3.07;;;2.77;;
5519;SDS011;2782;52.362;10.012;2022-12-10T05:23:00;3.10;;;2.80;;
5519;SDS011;2782;52.362;10.012;2022-12-10T05:24:19;3.08;;;2.53;;
5519;SDS011;2782;52.362;10.012;2022-12-10T05:25:21;2.95;;;2.50;;
5519;SDS011;2782;52.362;10.012;2022-12-10T05:26:22;3.60;;;3.30;;
5519;SDS011;2782;52.362;10.012;2022-12-10T05:27:24;3.13;;;2.83;;
5519;SDS011;2782;52.362;10.012;2022-12-10T05:28:26;3.05;;;2.50;;
5519;SDS011;2782;52.362;10.012;2022-12-10T05:29:29;3.42;;;3.03;;
5519;SDS011;2782;52.362;10.012;2022-12-10T05:30:34;2.83;;;2.55;;
5519;SDS011;2782;52.362;10.012;2022-12-10T05:31:35;4.28;;;3.10;;
5519;SDS011;2782;52.362;10.012;2022-12-10T05:32:36;2.70;;;2.40;;
5519;SDS011;2782;52.362;10.012;2022-12-10T05:33:38;2.47;;;2.28;;
5519;SDS011;2782;52.362;10.012;2022-12-10T05:34:42;3.05;;;2.60;;
5519;SDS011;2782;52.362;10.012;2022-12-10T05:35:43;4.25;;;3.05;;
5519;SDS011;2782;52.362;10.012;2022-12-10T05:36:52;3.40;;;2.35;;
5519;SDS011;2782;52.362;10.012;2022-12-10T05:37:53;3.55;;;2.50;;
5519;SDS011;2782;52.362;10.012;2022-12-10T05:38:55;3.70;;;2.70;;
5519;SDS011;2782;52.362;10.012;2022-12-10T05:39:57;3.17;;;2.25;;
5519;SDS011;2782;52.362;10.012;2022-12-10T05:41:00;2.73;;;2.27;;
5519;SDS011;2782;52.362;10.012;2022-12-10T05:42:03;2.63;;;2.30;;
5519;SDS011;2782;52.362;10.012;2022-12-10T05:43:04;3.38;;;2.50;;
5519;SDS011;2782;52.362;10.012;2022-12-10T05:44:06;3.65;;;2.67;;
5519;SDS011;2782;52.362;10.012;2022-12-10T05:45:08;3.10;;;2.67;;
5519;SDS011;2782;52.362;10.012;2022-12-10T05:46:11;3.45;;;2.22;;
5519;SDS011;2782;52.362;10.012;2022-12-10T05:47:13;2.17;;;1.98;;
5519;SDS011;2782;52.362;10.012;2022-12-10T05:48:15;2.03;;;1.83;;
5519;SDS011;2782;52.362;10.012;2022-12-10T05:49:16;3.55;;;2.20;;
5519;SDS011;2782;52.362;10.012;2022-12-10T05:50:19;2.40;;;2.20;;
5519;SDS011;2782;52.362;10.012;2022-12-10T05:51:20;5.85;;;2.22;;
5519;SDS011;2782;52.362;10.012;2022-12-10T05:52:23;3.95;;;2.70;;
5519;SDS011;2782;52.362;10.012;2022-12-10T05:53:24;2.23;;;1.80;;
5519;SDS011;2782;52.362;10.012;2022-12-10T05:54:26;1.95;;;1.80;;
5519;SDS011;2782;52.362;10.012;2022-12-10T05:55:27;3.27;;;2.40;;
5519;SDS011;2782;52.362;10.012;2022-12-10T05:56:29;2.15;;;1.95;;
5519;SDS011;2782;52.362;10.012;2022-12-10T05:57:30;2.47;;;2.20;;
5519;SDS011;2782;52.362;10.012;2022-12-10T05:58:31;2.30;;;2.10;;
5519;SDS011;2782;52.362;10.012;2022-12-10T05:59:33;2.65;;;2.33;;
5519;SDS011;2782;52.362;10.012;2022-12-10T06:00:34;2.83;;;2.35;;
5519;SDS011;2782;52.362;10.012;2022-12-10T06:01:38;2.30;;;2.08;;
5519;SDS011;2782;52.362;10.012;2022-12-10T06:02:40;2.17;;;1.75;;
5519;SDS011;2782;52.362;10.012;2022-12-10T06:03:41;2.10;;;1.80;;
5519;SDS011;2782;52.362;10.012;2022-12-10T06:04:43;2.75;;;2.05;;
5519;SDS011;2782;52.362;10.012;2022-12-10T06:05:48;2.45;;;2.00;;
5519;SDS011;2782;52.362;10.012;2022-12-10T06:06:49;2.10;;;2.00;;
5519;SDS011;2782;52.362;10.012;2022-12-10T06:07:51;1.98;;;1.77;;
5519;SDS011;2782;52.362;10.012;2022-12-10T06:08:52;2.17;;;1.98;;
5519;SDS011;2782;52.362;10.012;2022-12-10T06:09:54;2.90;;;1.90;;
5519;SDS011;2782;52.362;10.012;2022-12-10T06:10:54;2.57;;;2.00;;
5519;SDS011;2782;52.362;10.012;2022-12-10T06:11:57;1.80;;;1.65;;
5519;SDS011;2782;52.362;10.012;2022-12-10T06:12:58;2.77;;;2.23;;
5519;SDS011;2782;52.362;10.012;2022-12-10T06:14:00;2.10;;;1.90;;
5519;SDS011;2782;52.362;10.012;2022-12-10T06:15:01;1.90;;;1.60;;
5519;SDS011;2782;52.362;10.012;2022-12-10T06:16:04;2.58;;;2.10;;
5519;SDS011;2782;52.362;10.012;2022-12-10T06:17:05;2.20;;;2.00;;
5519;SDS011;2782;52.362;10.012;2022-12-10T06:18:07;2.15;;;1.83;;
5519;SDS011;2782;52.362;10.012;2022-12-10T06:19:08;1.90;;;1.80;;
5519;SDS011;2782;52.362;10.012;2022-12-10T06:20:10;2.42;;;1.90;;
5519;SDS011;2782;52.362;10.012;2022-12-10T06:21:13;2.45;;;2.00;;
5519;SDS011;2782;52.362;10.012;2022-12-10T06:22:16;1.83;;;1.73;;
5519;SDS011;2782;52.362;10.012;2022-12-10T06:23:18;1.75;;;1.65;;
5519;SDS011;2782;52.362;10.012;2022-12-10T06:24:19;2.10;;;1.87;;
5519;SDS011;2782;52.362;10.012;2022-12-10T06:25:20;2.72;;;2.08;;
5519;SDS011;2782;52.362;10.012;2022-12-10T06:26:22;1.60;;;1.50;;
5519;SDS011;2782;52.362;10.012;2022-12-10T06:27:26;1.70;;;1.60;;